createdAt,value
2023-07-24T00:02:15.147Z,2.10
2023-07-24T00:04:43.042Z,2.20
2023-07-24T00:07:12.300Z,2.20
2023-07-24T00:09:40.367Z,2.15
2023-07-24T00:12:09.285Z,2.05
2023-07-24T00:14:37.205Z,1.85
2023-07-24T00:17:05.273Z,2.03
2023-07-24T00:19:33.309Z,2.40
2023-07-24T00:22:01.210Z,2.17
2023-07-24T00:24:32.174Z,2.05
2023-07-24T00:27:00.303Z,2.00
2023-07-24T00:29:28.190Z,2.00
2023-07-24T00:31:56.295Z,1.90
2023-07-24T00:34:24.170Z,2.22
2023-07-24T00:36:52.421Z,1.73
2023-07-24T00:39:20.275Z,1.80
2023-07-24T00:41:49.509Z,2.28
2023-07-24T00:44:17.390Z,1.88
2023-07-24T00:46:45.375Z,1.75
2023-07-24T00:49:15.209Z,1.90
2023-07-24T00:51:43.365Z,1.70
2023-07-24T00:54:11.266Z,2.00
2023-07-24T00:56:39.521Z,2.00
2023-07-24T00:59:08.751Z,1.85
2023-07-24T01:01:38.764Z,1.92
2023-07-24T01:04:08.130Z,2.10
2023-07-24T01:06:36.162Z,1.83
2023-07-24T01:09:05.052Z,1.88
2023-07-24T01:11:39.310Z,2.00
2023-07-24T01:14:15.797Z,1.70
2023-07-24T01:16:44.771Z,1.80
2023-07-24T01:19:18.196Z,1.67
2023-07-24T01:22:03.439Z,1.80
2023-07-24T01:24:36.135Z,1.60
2023-07-24T01:27:06.200Z,1.77
2023-07-24T01:29:34.042Z,1.98
2023-07-24T01:32:02.085Z,2.08
2023-07-24T01:34:30.048Z,1.80
2023-07-24T01:36:58.171Z,1.90
2023-07-24T01:39:26.399Z,2.50
2023-07-24T01:41:54.266Z,1.95
2023-07-24T01:44:23.562Z,2.20
2023-07-24T01:46:51.502Z,2.20
2023-07-24T01:49:19.507Z,2.15
2023-07-24T01:51:47.342Z,2.10
2023-07-24T01:54:15.172Z,1.95
2023-07-24T01:56:42.990Z,2.10
2023-07-24T01:59:10.859Z,2.20
2023-07-24T02:01:40.169Z,1.88
2023-07-24T02:04:08.040Z,2.20
2023-07-24T02:06:35.999Z,2.10
2023-07-24T02:09:03.930Z,2.35
2023-07-24T02:11:31.721Z,2.35
2023-07-24T02:14:00.401Z,2.25
2023-07-24T02:16:28.794Z,1.80
2023-07-24T02:18:58.294Z,2.40
2023-07-24T02:21:26.132Z,2.30
2023-07-24T02:23:56.448Z,2.20
2023-07-24T02:26:24.316Z,2.40
2023-07-24T02:28:52.204Z,2.60
2023-07-24T02:31:20.188Z,2.65
2023-07-24T02:33:48.074Z,2.78
2023-07-24T02:36:17.509Z,2.50
2023-07-24T02:38:45.752Z,2.60
2023-07-24T02:41:13.819Z,2.70
2023-07-24T02:43:41.944Z,2.30
2023-07-24T02:46:10.145Z,2.25
2023-07-24T02:48:38.231Z,2.50
2023-07-24T02:51:06.249Z,2.30
2023-07-24T02:53:35.610Z,2.30
2023-07-24T02:56:04.426Z,2.38
2023-07-24T02:58:32.554Z,2.35
2023-07-24T03:01:05.410Z,2.78
2023-07-24T03:03:33.602Z,2.60
2023-07-24T03:06:01.625Z,2.75
2023-07-24T03:08:29.796Z,2.50
2023-07-24T03:10:59.389Z,2.60
2023-07-24T03:13:28.540Z,2.50
2023-07-24T03:15:58.406Z,2.40
2023-07-24T03:18:27.434Z,2.30
2023-07-24T03:20:55.672Z,2.72
2023-07-24T03:23:23.837Z,2.53
2023-07-24T03:25:51.859Z,2.53
2023-07-24T03:28:21.381Z,2.83
2023-07-24T03:30:49.558Z,2.58
2023-07-24T03:33:18.596Z,2.58
2023-07-24T03:35:46.584Z,2.53
2023-07-24T03:38:14.709Z,2.65
2023-07-24T03:40:42.690Z,2.85
2023-07-24T03:43:11.325Z,2.38
2023-07-24T03:45:40.971Z,2.88
2023-07-24T03:48:09.261Z,2.40
2023-07-24T03:50:39.155Z,2.47
2023-07-24T03:53:07.457Z,2.85
2023-07-24T03:55:35.597Z,2.42
2023-07-24T03:58:03.674Z,2.90
2023-07-24T04:00:31.809Z,2.50
2023-07-24T04:03:01.430Z,2.72
2023-07-24T04:05:29.522Z,2.63
2023-07-24T04:07:57.804Z,2.60
2023-07-24T04:10:25.994Z,2.78
2023-07-24T04:12:54.176Z,2.65
2023-07-24T04:15:22.708Z,2.72
2023-07-24T04:17:50.909Z,2.72
2023-07-24T04:20:20.560Z,2.70
2023-07-24T04:22:48.943Z,2.60
2023-07-24T04:25:17.202Z,2.30
2023-07-24T04:27:45.414Z,2.47
2023-07-24T04:30:14.178Z,2.72
2023-07-24T04:32:42.440Z,2.80
2023-07-24T04:35:10.879Z,2.55
2023-07-24T04:37:43.367Z,2.25
2023-07-24T04:42:40.032Z,2.30
2023-07-24T04:45:09.419Z,2.55
2023-07-24T04:47:38.105Z,2.45
2023-07-24T04:50:07.134Z,2.40
2023-07-24T04:52:35.002Z,2.83
2023-07-24T04:55:04.425Z,2.30
2023-07-24T04:57:32.316Z,2.40
2023-07-24T05:00:00.201Z,2.35
2023-07-24T05:02:28.149Z,2.67
2023-07-24T05:04:56.035Z,2.78
2023-07-24T05:07:23.910Z,2.90
2023-07-24T05:09:51.866Z,3.13
2023-07-24T05:12:21.243Z,2.72
2023-07-24T05:14:49.247Z,2.47
2023-07-24T05:17:17.062Z,2.80
2023-07-24T05:19:45.018Z,2.78
2023-07-24T05:22:12.852Z,2.42
2023-07-24T05:24:40.862Z,2.55
2023-07-24T05:27:08.794Z,2.50
2023-07-24T05:29:38.119Z,2.72
2023-07-24T05:32:07.017Z,3.10
2023-07-24T05:34:34.826Z,2.90
2023-07-24T05:37:02.751Z,3.03
2023-07-24T05:39:31.873Z,2.70
2023-07-24T05:41:59.877Z,2.67
2023-07-24T05:44:27.732Z,2.88
2023-07-24T05:46:56.999Z,2.88
2023-07-24T05:49:24.921Z,2.60
2023-07-24T05:51:53.848Z,2.90
2023-07-24T05:54:21.919Z,2.95
2023-07-24T05:56:49.752Z,3.03
2023-07-24T05:59:17.644Z,2.90
2023-07-24T06:01:45.841Z,2.70
2023-07-24T06:04:15.193Z,3.05
2023-07-24T06:06:43.231Z,2.80
2023-07-24T06:09:11.081Z,3.08
2023-07-24T06:11:38.893Z,3.20
2023-07-24T06:14:06.768Z,2.90
2023-07-24T06:16:34.804Z,2.95
2023-07-24T06:19:02.792Z,2.97
2023-07-24T06:21:31.988Z,3.00
2023-07-24T06:23:59.933Z,3.25
2023-07-24T06:26:28.181Z,2.63
2023-07-24T06:28:56.265Z,3.25
2023-07-24T06:31:24.206Z,3.10
2023-07-24T06:33:52.174Z,3.30
2023-07-24T06:36:20.020Z,3.15
2023-07-24T06:38:49.765Z,2.70
2023-07-24T06:41:17.640Z,2.58
2023-07-24T06:43:45.559Z,2.60
2023-07-24T06:46:13.408Z,2.72
2023-07-24T06:48:41.259Z,2.65
2023-07-24T06:51:09.104Z,2.45
2023-07-24T06:53:37.006Z,2.50
2023-07-24T06:56:06.336Z,2.80
2023-07-24T06:58:34.287Z,2.78
2023-07-24T07:01:02.244Z,2.70
2023-07-24T07:03:30.265Z,2.50
2023-07-24T07:06:01.195Z,2.55
2023-07-24T07:08:29.315Z,2.78
2023-07-24T07:10:58.238Z,2.20
2023-07-24T07:13:28.245Z,2.33
2023-07-24T07:15:56.220Z,2.55
2023-07-24T07:18:24.176Z,2.35
2023-07-24T07:20:53.233Z,1.95
2023-07-24T07:23:21.459Z,2.47
2023-07-24T07:25:50.380Z,2.35
2023-07-24T07:28:18.966Z,2.22
2023-07-24T07:30:48.212Z,2.10
2023-07-24T07:33:16.642Z,2.63
2023-07-24T07:35:45.083Z,2.35
2023-07-24T07:38:12.883Z,2.20
2023-07-24T07:40:41.067Z,2.38
2023-07-24T07:43:08.942Z,2.53
2023-07-24T07:45:36.779Z,2.30
2023-07-24T07:48:06.817Z,2.10
2023-07-24T07:50:34.755Z,2.20
2023-07-24T07:53:02.573Z,2.47
2023-07-24T07:55:30.442Z,2.20
2023-07-24T07:58:00.447Z,2.30
2023-07-24T08:00:28.289Z,2.20
2023-07-24T08:02:56.219Z,2.60
2023-07-24T08:05:25.596Z,2.03
2023-07-24T08:07:53.512Z,2.15
2023-07-24T08:10:21.589Z,1.90
2023-07-24T08:12:49.523Z,2.20
2023-07-24T08:15:17.676Z,2.08
2023-07-24T08:17:45.680Z,2.13
2023-07-24T08:20:13.755Z,1.80
2023-07-24T08:22:43.020Z,2.30
2023-07-24T08:25:11.026Z,1.98
2023-07-24T08:27:54.462Z,1.98
2023-07-24T08:30:22.927Z,2.05
2023-07-24T08:32:52.110Z,1.70
2023-07-24T08:35:20.112Z,1.75
2023-07-24T08:37:49.337Z,2.05
2023-07-24T08:40:18.207Z,1.95
2023-07-24T08:42:46.227Z,2.17
2023-07-24T08:45:15.438Z,2.28
2023-07-24T08:47:45.091Z,1.90
2023-07-24T08:50:13.551Z,2.10
2023-07-24T08:52:43.248Z,2.30
2023-07-24T08:55:12.769Z,2.05
2023-07-24T08:57:40.599Z,1.90
2023-07-24T09:00:09.451Z,1.80
2023-07-24T09:02:38.005Z,2.03
2023-07-24T09:05:07.181Z,1.88
2023-07-24T09:07:35.097Z,2.28
2023-07-24T09:10:03.013Z,2.17
2023-07-24T09:12:32.361Z,2.20
2023-07-24T09:15:06.621Z,2.10
2023-07-24T09:17:35.260Z,2.00
2023-07-24T09:20:05.002Z,2.20
2023-07-24T09:22:34.761Z,2.10
2023-07-24T09:25:04.705Z,2.17
2023-07-24T09:27:34.498Z,2.25
2023-07-24T09:30:03.920Z,2.22
2023-07-24T09:32:32.869Z,2.03
2023-07-24T09:35:01.092Z,2.00
2023-07-24T09:37:30.234Z,2.35
2023-07-24T09:40:00.137Z,2.05
2023-07-24T09:42:32.409Z,2.40
2023-07-24T09:45:01.961Z,2.05
2023-07-24T09:47:52.749Z,2.00
2023-07-24T09:50:18.306Z,1.92
2023-07-24T09:52:48.562Z,2.38
2023-07-24T09:55:23.967Z,2.30
2023-07-24T09:57:55.758Z,2.22
2023-07-24T10:00:25.595Z,2.58
2023-07-24T10:02:53.725Z,2.25
2023-07-24T10:05:21.987Z,2.17
2023-07-24T10:07:50.360Z,2.90
2023-07-24T10:10:18.393Z,2.20
2023-07-24T10:12:46.799Z,2.33
2023-07-24T10:15:15.711Z,2.28
2023-07-24T10:17:45.234Z,2.13
2023-07-24T10:20:14.352Z,1.98
2023-07-24T10:22:44.393Z,2.15
2023-07-24T10:25:12.979Z,2.25
2023-07-24T10:27:44.052Z,2.20
2023-07-24T10:30:27.319Z,1.95
2023-07-24T10:33:06.150Z,1.83
2023-07-24T10:35:39.900Z,2.22
2023-07-24T10:38:07.899Z,1.80
2023-07-24T10:40:36.304Z,1.95
2023-07-24T10:43:07.745Z,1.90
2023-07-24T10:45:49.319Z,1.70
2023-07-24T10:48:19.089Z,1.80
2023-07-24T10:50:51.547Z,1.80
2023-07-24T10:53:23.240Z,1.90
2023-07-24T10:55:53.756Z,1.85
2023-07-24T10:58:21.635Z,1.83
2023-07-24T11:00:49.612Z,2.00
2023-07-24T11:03:19.462Z,1.98
2023-07-24T11:05:49.085Z,1.92
2023-07-24T11:08:18.517Z,2.03
2023-07-24T11:10:48.412Z,1.70
2023-07-24T11:13:16.583Z,1.80
2023-07-24T11:15:45.867Z,1.90
2023-07-24T11:18:14.237Z,1.70
2023-07-24T11:20:47.945Z,1.60
2023-07-24T11:23:16.916Z,1.90
2023-07-24T11:25:45.452Z,1.90
2023-07-24T11:28:15.511Z,2.03
2023-07-24T11:30:44.342Z,1.80
2023-07-24T11:33:16.119Z,1.80
2023-07-24T11:35:47.252Z,1.80
2023-07-24T11:38:16.153Z,1.80
2023-07-24T11:40:46.406Z,1.98
2023-07-24T11:43:19.386Z,1.77
2023-07-24T11:45:49.780Z,1.63
2023-07-24T11:48:17.815Z,1.33
2023-07-24T11:50:48.752Z,1.70
2023-07-24T11:53:24.841Z,1.88
2023-07-24T11:55:53.732Z,1.55
2023-07-24T11:58:22.491Z,1.45
2023-07-24T12:00:52.846Z,1.50
2023-07-24T12:03:22.808Z,1.48
2023-07-24T12:05:52.423Z,1.48
2023-07-24T12:08:24.608Z,1.67
2023-07-24T12:13:22.031Z,1.30
2023-07-24T12:15:50.369Z,1.10
2023-07-24T12:18:18.526Z,1.48
2023-07-24T12:20:46.462Z,1.38
2023-07-24T12:23:15.753Z,1.20
2023-07-24T12:25:43.597Z,1.27
2023-07-24T12:28:11.532Z,1.20
2023-07-24T12:30:39.721Z,1.10
2023-07-24T12:33:07.578Z,1.20
2023-07-24T12:35:35.459Z,1.38
2023-07-24T12:38:03.379Z,1.30
2023-07-24T12:40:32.655Z,1.23
2023-07-24T12:43:00.484Z,1.33
2023-07-24T12:45:28.506Z,6.35
2023-07-24T12:47:57.157Z,5.30
2023-07-24T12:50:25.659Z,3.38
2023-07-24T12:52:53.483Z,2.45
2023-07-24T12:55:21.887Z,2.00
2023-07-24T12:57:51.054Z,1.90
2023-07-24T13:00:19.165Z,1.70
2023-07-24T13:02:47.104Z,1.50
2023-07-24T13:05:15.097Z,1.70
2023-07-24T13:07:43.008Z,1.50
2023-07-24T13:10:11.601Z,1.27
2023-07-24T13:12:39.482Z,1.60
2023-07-24T13:15:09.555Z,1.40
2023-07-24T13:17:38.193Z,1.33
2023-07-24T13:20:07.608Z,1.20
2023-07-24T13:22:35.496Z,1.42
2023-07-24T13:25:03.856Z,1.15
2023-07-24T13:27:31.686Z,1.13
2023-07-24T13:29:59.563Z,1.30
2023-07-24T13:32:30.906Z,1.17
2023-07-24T13:34:59.996Z,1.20
2023-07-24T13:37:27.869Z,1.30
2023-07-24T13:39:55.793Z,1.20
2023-07-24T13:42:23.646Z,1.00
2023-07-24T13:44:51.862Z,1.20
2023-07-24T13:47:19.736Z,1.17
2023-07-24T13:49:49.025Z,1.20
2023-07-24T13:52:17.051Z,1.20
2023-07-24T13:54:45.015Z,1.23
2023-07-24T13:57:12.884Z,1.35
2023-07-24T13:59:41.495Z,1.30
2023-07-24T14:02:09.501Z,1.20
2023-07-24T14:04:37.585Z,1.50
2023-07-24T14:07:07.169Z,1.27
2023-07-24T14:09:36.006Z,1.33
2023-07-24T14:12:03.953Z,1.58
2023-07-24T14:14:32.597Z,1.20
2023-07-24T14:17:00.440Z,0.80
2023-07-24T14:19:28.340Z,1.20
2023-07-24T14:21:56.138Z,1.10
2023-07-24T14:24:25.518Z,0.85
2023-07-24T14:26:53.425Z,0.93
2023-07-24T14:29:21.331Z,1.00
2023-07-24T14:31:49.231Z,1.00
2023-07-24T14:34:17.391Z,1.00
2023-07-24T14:36:45.197Z,1.02
2023-07-24T14:39:13.174Z,0.85
2023-07-24T14:41:42.569Z,1.10
2023-07-24T14:44:10.468Z,0.90
2023-07-24T14:46:38.440Z,0.95
2023-07-24T14:49:06.409Z,1.10
2023-07-24T14:51:34.847Z,1.00
2023-07-24T14:54:02.846Z,1.10
2023-07-24T14:56:43.941Z,1.00
2023-07-24T14:59:19.977Z,1.20
2023-07-24T15:01:47.879Z,1.00
2023-07-24T15:04:15.723Z,1.10
2023-07-24T15:06:43.620Z,1.15
2023-07-24T15:09:12.552Z,1.23
2023-07-24T15:11:40.822Z,1.30
2023-07-24T15:14:08.763Z,1.08
2023-07-24T15:16:38.062Z,1.13
2023-07-24T15:19:06.038Z,1.35
2023-07-24T15:21:35.410Z,1.20
2023-07-24T15:24:03.273Z,1.17
2023-07-24T15:26:31.234Z,1.27
2023-07-24T15:28:59.140Z,1.38
2023-07-24T15:31:27.313Z,1.33
2023-07-24T15:33:56.534Z,1.33
2023-07-24T15:36:24.351Z,1.40
2023-07-24T15:38:52.216Z,1.23
2023-07-24T15:41:20.136Z,1.10
2023-07-24T15:43:47.968Z,1.38
2023-07-24T15:46:18.174Z,1.25
2023-07-24T15:48:46.359Z,1.25
2023-07-24T15:51:15.656Z,1.13
2023-07-24T15:53:43.511Z,1.30
2023-07-24T15:56:12.950Z,1.27
2023-07-24T15:58:46.925Z,1.60
2023-07-24T16:01:17.885Z,1.50
2023-07-24T16:03:46.729Z,1.55
2023-07-24T16:06:16.807Z,1.80
2023-07-24T16:08:45.354Z,1.70
2023-07-24T16:11:15.853Z,1.73
2023-07-24T16:13:45.318Z,2.00
2023-07-24T16:16:16.898Z,2.13
2023-07-24T16:18:46.340Z,1.90
2023-07-24T16:21:14.337Z,1.83
2023-07-24T16:23:43.803Z,2.05
2023-07-24T16:26:11.644Z,2.60
2023-07-24T16:28:40.270Z,2.53
2023-07-24T16:31:49.208Z,2.22
2023-07-24T16:34:38.121Z,2.17
2023-07-24T16:37:12.595Z,2.30
2023-07-24T16:39:50.783Z,2.10
2023-07-24T16:47:15.495Z,1.98
2023-07-24T16:49:43.501Z,1.50
2023-07-24T16:52:11.367Z,1.50
2023-07-24T16:54:39.198Z,2.10
2023-07-24T16:57:09.072Z,2.38
2023-07-24T16:59:36.947Z,4.60
2023-07-24T17:02:04.943Z,5.72
2023-07-24T17:04:32.797Z,4.50
2023-07-24T17:07:01.998Z,4.00
2023-07-24T17:09:29.888Z,2.85
2023-07-24T17:11:57.724Z,2.10
2023-07-24T17:14:26.990Z,2.10
2023-07-24T17:16:54.927Z,2.00
2023-07-24T17:19:23.535Z,1.75
2023-07-24T17:21:51.431Z,1.83
2023-07-24T17:24:19.492Z,1.80
2023-07-24T17:26:47.441Z,1.83
2023-07-24T17:29:15.384Z,1.70
2023-07-24T17:31:45.092Z,1.60
2023-07-24T17:34:12.926Z,1.80
2023-07-24T17:36:40.797Z,1.67
2023-07-24T17:39:08.700Z,1.80
2023-07-24T17:41:36.530Z,1.83
2023-07-24T17:44:04.433Z,1.50
2023-07-24T17:46:32.446Z,1.42
2023-07-24T17:49:01.782Z,1.90
2023-07-24T17:51:29.997Z,1.65
2023-07-24T17:53:59.750Z,1.67
2023-07-24T17:56:27.666Z,1.73
2023-07-24T17:58:55.616Z,1.60
2023-07-24T18:01:23.551Z,1.60
2023-07-24T18:03:51.501Z,1.30
2023-07-24T18:06:20.730Z,1.40
2023-07-24T18:08:48.747Z,1.20
2023-07-24T18:11:16.589Z,1.30
2023-07-24T18:13:44.671Z,1.40
2023-07-24T18:16:12.599Z,1.58
2023-07-24T18:18:40.491Z,1.38
2023-07-24T18:21:09.164Z,1.50
2023-07-24T18:23:38.822Z,1.50
2023-07-24T18:26:06.705Z,1.40
2023-07-24T18:28:34.753Z,1.33
2023-07-24T18:31:02.723Z,1.42
2023-07-24T18:33:31.322Z,1.40
2023-07-24T18:35:59.199Z,1.70
2023-07-24T18:38:27.221Z,1.60
2023-07-24T18:40:56.433Z,1.63
2023-07-24T18:43:24.526Z,1.50
2023-07-24T18:45:52.516Z,1.60
2023-07-24T18:48:20.648Z,1.50
2023-07-24T18:50:48.456Z,1.70
2023-07-24T18:53:17.949Z,1.60
2023-07-24T18:55:45.979Z,1.77
2023-07-24T18:58:15.257Z,1.70
2023-07-24T19:00:43.087Z,1.73
2023-07-24T19:03:12.139Z,1.73
2023-07-24T19:05:40.048Z,1.80
2023-07-24T19:08:08.031Z,2.00
2023-07-24T19:10:36.315Z,2.00
2023-07-24T19:13:04.236Z,1.92
2023-07-24T19:15:33.531Z,1.92
2023-07-24T19:18:01.409Z,1.90
2023-07-24T19:20:31.508Z,2.33
2023-07-24T19:22:59.436Z,2.40
2023-07-24T19:25:27.291Z,2.35
2023-07-24T19:27:55.207Z,2.03
2023-07-24T19:30:23.139Z,2.20
2023-07-24T19:32:52.451Z,2.47
2023-07-24T19:35:21.049Z,2.47
2023-07-24T19:37:48.954Z,2.42
2023-07-24T19:40:16.883Z,2.25
2023-07-24T19:42:44.804Z,2.45
2023-07-24T19:45:12.888Z,2.20
2023-07-24T19:47:40.958Z,2.35
2023-07-24T19:50:10.864Z,2.30
2023-07-24T19:52:38.846Z,2.30
2023-07-24T19:55:09.725Z,2.30
2023-07-24T19:57:39.109Z,2.42
2023-07-24T20:00:08.563Z,2.30
2023-07-24T20:02:36.522Z,2.55
2023-07-24T20:05:04.533Z,2.75
2023-07-24T20:07:33.852Z,2.58
2023-07-24T20:10:01.913Z,2.88
2023-07-24T20:12:29.822Z,2.50
2023-07-24T20:14:57.767Z,2.53
2023-07-24T20:17:25.733Z,2.70
2023-07-24T20:19:53.608Z,2.58
2023-07-24T20:22:21.482Z,2.70
2023-07-24T20:24:50.784Z,3.40
2023-07-24T20:27:18.800Z,2.72
2023-07-24T20:29:46.644Z,3.00
2023-07-24T20:32:15.094Z,3.00
2023-07-24T20:34:43.137Z,3.45
2023-07-24T20:37:11.002Z,3.25
2023-07-24T20:39:38.867Z,2.92
2023-07-24T20:42:08.410Z,3.08
2023-07-24T20:44:36.224Z,2.63
2023-07-24T20:47:04.292Z,3.35
2023-07-24T20:49:35.157Z,2.80
2023-07-24T20:52:03.156Z,3.00
2023-07-24T20:54:30.987Z,3.08
2023-07-24T20:56:59.341Z,3.00
2023-07-24T20:59:28.786Z,3.30
2023-07-24T21:01:56.794Z,3.00
2023-07-24T21:04:24.769Z,3.40
2023-07-24T21:06:52.771Z,3.13
2023-07-24T21:09:21.354Z,3.10
2023-07-24T21:11:49.277Z,3.25
2023-07-24T21:14:17.317Z,3.17
2023-07-24T21:16:46.767Z,2.80
2023-07-24T21:19:14.677Z,2.65
2023-07-24T21:21:42.597Z,2.38
2023-07-24T21:24:10.550Z,2.50
2023-07-24T21:26:38.631Z,2.08
2023-07-24T21:29:06.537Z,2.00
2023-07-24T21:31:34.887Z,2.05
2023-07-24T21:34:04.350Z,2.08
2023-07-24T21:36:32.332Z,1.90
2023-07-24T21:39:00.210Z,1.98
2023-07-24T21:41:30.798Z,1.98
2023-07-24T21:43:58.941Z,1.95
2023-07-24T21:46:26.964Z,1.80
2023-07-24T21:48:54.926Z,1.60
2023-07-24T21:51:24.162Z,1.58
2023-07-24T21:53:52.019Z,1.60
2023-07-24T21:56:19.982Z,1.60
2023-07-24T21:58:49.099Z,1.35
2023-07-24T22:01:21.096Z,1.40
2023-07-24T22:03:49.317Z,1.40
2023-07-24T22:06:17.232Z,1.20
2023-07-24T22:08:46.623Z,1.00
2023-07-24T22:11:15.894Z,1.10
2023-07-24T22:13:44.866Z,1.40
2023-07-24T22:16:12.905Z,1.42
2023-07-24T22:18:40.936Z,1.60
2023-07-24T22:21:08.906Z,1.20
2023-07-24T22:23:37.160Z,1.50
2023-07-24T22:26:06.470Z,1.30
2023-07-24T22:28:34.486Z,1.40
2023-07-24T22:31:08.666Z,1.70
2023-07-24T22:33:36.762Z,1.80
2023-07-24T22:36:05.350Z,2.08
2023-07-24T22:38:33.395Z,1.73
2023-07-24T22:41:08.716Z,1.60
2023-07-24T22:43:38.154Z,1.60
2023-07-24T22:46:06.232Z,1.60
2023-07-24T22:48:34.238Z,1.52
2023-07-24T22:51:02.385Z,1.63
2023-07-24T22:53:30.371Z,1.80
2023-07-24T22:55:58.219Z,1.42
2023-07-24T22:58:26.633Z,1.42
2023-07-24T23:00:55.849Z,1.42
2023-07-24T23:03:23.869Z,1.23
2023-07-24T23:05:51.903Z,1.70
2023-07-24T23:08:19.829Z,1.58
2023-07-24T23:10:51.515Z,1.23
2023-07-24T23:13:19.888Z,1.40
2023-07-24T23:15:47.775Z,1.42
2023-07-24T23:18:17.222Z,1.30
2023-07-24T23:20:45.415Z,1.20
2023-07-24T23:23:13.320Z,1.10
2023-07-24T23:25:41.098Z,1.30
2023-07-24T23:28:09.024Z,1.02
2023-07-24T23:30:41.087Z,1.50
2023-07-24T23:33:09.107Z,1.27
2023-07-24T23:35:38.400Z,1.10
2023-07-24T23:38:06.286Z,1.10
2023-07-24T23:40:34.134Z,1.00
2023-07-24T23:43:02.120Z,1.80
2023-07-24T23:45:33.697Z,1.30
2023-07-24T23:48:01.693Z,1.35
2023-07-24T23:50:29.822Z,1.63
2023-07-24T23:52:59.986Z,1.20
2023-07-24T23:55:31.301Z,1.30
2023-07-24T23:57:59.221Z,1.58
